Time;durP1;ratioP1;P1;durP2;ratioP2;P2;SDS_P1;SDS_P2;PMS_P1;PMS_P2;Temp;Humidity;BMP_temperature;BMP_pressure;BME280_temperature;BME280_humidity;BME280_pressure;Samples;Min_cycle;Max_cycle;Signal;HPM_P1;HPM_P2
2024/01/26 00:01:56;;;;;;;12.77;11.53;;;;;;;4.62;68.81;93108.84;5017784;28;20243;-75
2024/01/26 00:04:22;;;;;;;13.27;12.00;;;;;;;4.57;69.16;93113.16;5007383;28;20317;-75
2024/01/26 00:06:48;;;;;;;13.00;11.83;;;;;;;4.53;69.20;93101.69;5043892;28;20243;-76
2024/01/26 00:09:15;;;;;;;13.70;12.53;;;;;;;4.62;69.42;93114.03;4996262;28;20267;-75
2024/01/26 00:11:41;;;;;;;16.30;12.47;;;;;;;4.54;69.70;93114.41;5007125;28;20238;-75
2024/01/26 00:14:07;;;;;;;12.50;11.20;;;;;;;4.53;70.15;93125.75;4996210;28;20230;-75
2024/01/26 00:16:33;;;;;;;13.90;12.60;;;;;;;4.42;70.38;93118.78;4998822;28;20248;-75
2024/01/26 00:18:58;;;;;;;12.07;11.07;;;;;;;4.37;71.05;93103.19;4996632;28;20579;-75
2024/01/26 00:21:24;;;;;;;12.57;11.27;;;;;;;4.33;69.91;93107.25;5000888;28;20249;-75
2024/01/26 00:23:49;;;;;;;16.90;15.20;;;;;;;4.35;70.04;93122.53;5002275;28;20195;-75
2024/01/26 00:26:15;;;;;;;64.93;30.97;;;;;;;4.40;69.38;93130.38;5006960;28;20957;-75
2024/01/26 00:28:41;;;;;;;12.23;11.43;;;;;;;4.38;69.22;93125.44;5005077;28;20877;-75
2024/01/26 00:31:07;;;;;;;16.53;14.93;;;;;;;4.48;69.67;93141.16;5003962;28;20224;-75
2024/01/26 00:33:33;;;;;;;12.43;11.17;;;;;;;4.49;71.61;93129.81;5007806;28;20180;-75
2024/01/26 00:35:59;;;;;;;12.30;11.37;;;;;;;4.42;68.93;93136.88;5003777;28;20236;-75
2024/01/26 00:38:24;;;;;;;13.60;12.30;;;;;;;4.19;68.39;93103.34;5072138;28;20231;-74
2024/01/26 00:40:50;;;;;;;14.10;12.77;;;;;;;4.44;68.50;93137.47;5006613;28;20227;-75
2024/01/26 00:43:16;;;;;;;13.40;12.03;;;;;;;4.35;68.73;93127.69;5006258;28;20810;-74
2024/01/26 00:45:42;;;;;;;13.13;11.80;;;;;;;4.38;68.36;93124.66;4993704;28;20220;-75
2024/01/26 00:48:07;;;;;;;14.70;13.47;;;;;;;4.29;67.53;93113.91;5000969;28;20243;-75
2024/01/26 00:50:32;;;;;;;12.43;11.40;;;;;;;4.37;67.55;93136.00;5003374;28;20238;-75
2024/01/26 00:52:58;;;;;;;14.70;13.30;;;;;;;4.30;67.30;93138.72;5001075;28;20180;-74
2024/01/26 00:55:23;;;;;;;12.93;11.77;;;;;;;4.52;67.96;93121.59;5004957;28;20247;-74
2024/01/26 00:57:49;;;;;;;13.93;12.60;;;;;;;4.43;68.34;93122.19;4998353;28;20203;-75
2024/01/26 01:00:15;;;;;;;13.07;11.83;;;;;;;4.28;67.52;93114.91;5004351;28;20203;-75
2024/01/26 01:02:40;;;;;;;15.33;13.80;;;;;;;4.52;68.99;93124.19;5006803;28;20187;-76
2024/01/26 01:05:06;;;;;;;13.03;12.07;;;;;;;4.46;68.03;93117.34;4998941;28;20218;-75
2024/01/26 01:07:32;;;;;;;11.00;10.23;;;;;;;4.37;67.94;93103.19;4989146;28;20224;-75
2024/01/26 01:09:57;;;;;;;13.27;11.93;;;;;;;4.21;67.41;93109.06;5022365;28;20227;-75
2024/01/26 01:12:23;;;;;;;12.93;11.97;;;;;;;4.27;67.45;93117.72;5006279;28;20215;-75
2024/01/26 01:14:48;;;;;;;12.27;11.20;;;;;;;4.23;68.65;93121.78;5003867;28;20183;-75
2024/01/26 01:17:14;;;;;;;11.67;10.53;;;;;;;4.17;68.08;93120.88;5008433;28;20907;-75
2024/01/26 01:19:39;;;;;;;11.77;10.73;;;;;;;4.14;67.79;93098.06;5007319;28;20191;-75
2024/01/26 01:22:05;;;;;;;12.40;11.53;;;;;;;4.10;68.56;93102.13;5006923;28;20211;-75
2024/01/26 01:24:31;;;;;;;11.47;10.70;;;;;;;4.02;69.48;93091.34;5007331;28;20778;-75
2024/01/26 01:26:57;;;;;;;11.40;10.40;;;;;;;4.05;70.13;93096.84;5006276;28;20287;-75
2024/01/26 01:29:22;;;;;;;13.17;11.87;;;;;;;4.03;69.16;93096.28;5002826;28;20223;-75
2024/01/26 01:31:47;;;;;;;13.67;12.17;;;;;;;3.98;69.42;93085.88;5003747;28;20224;-75
2024/01/26 01:34:13;;;;;;;11.70;10.80;;;;;;;3.90;69.38;93083.63;4992479;28;20180;-75
2024/01/26 01:36:38;;;;;;;11.37;10.33;;;;;;;3.96;69.23;93084.50;5010157;28;20247;-75
2024/01/26 01:39:04;;;;;;;11.57;10.63;;;;;;;3.89;70.60;93079.44;5002845;28;20232;-75
2024/01/26 01:41:29;;;;;;;10.50;9.57;;;;;;;3.98;69.82;93085.88;5062223;28;20228;-75
2024/01/26 01:43:57;;;;;;;12.27;11.43;;;;;;;3.88;70.71;93083.06;5096508;28;20204;-75
2024/01/26 01:46:23;;;;;;;12.83;11.47;;;;;;;3.66;70.56;93069.16;5032902;28;20236;-75
2024/01/26 01:48:49;;;;;;;10.97;10.10;;;;;;;3.75;71.25;93075.53;4990668;28;20215;-75
2024/01/26 01:51:15;;;;;;;12.03;11.00;;;;;;;3.84;71.08;93091.47;5006856;28;20246;-75
2024/01/26 01:53:41;;;;;;;12.60;11.27;;;;;;;3.88;71.27;93084.84;4999327;28;20193;-75
2024/01/26 01:56:10;;;;;;;13.27;11.20;;;;;;;3.91;70.54;93087.78;4998699;28;20317;-75
2024/01/26 01:58:37;;;;;;;12.30;11.27;;;;;;;3.97;70.96;93097.19;5005896;28;20188;-74
2024/01/26 02:01:04;;;;;;;12.73;11.93;;;;;;;3.92;70.95;93091.91;5004204;28;20245;-74
2024/01/26 02:03:30;;;;;;;12.77;11.67;;;;;;;4.03;70.83;93101.44;5005085;28;20195;-75
2024/01/26 02:05:55;;;;;;;11.57;10.57;;;;;;;3.94;70.19;93105.41;5017780;28;20298;-75
2024/01/26 02:08:21;;;;;;;12.07;11.07;;;;;;;3.86;70.79;93094.63;5027071;28;20262;-75
2024/01/26 02:10:46;;;;;;;12.67;11.70;;;;;;;4.01;71.01;93119.00;5005901;28;20234;-75
2024/01/26 02:13:12;;;;;;;12.80;11.43;;;;;;;3.93;69.74;93105.63;4991674;28;20180;-75
2024/01/26 02:15:37;;;;;;;11.67;10.63;;;;;;;3.85;68.64;93099.00;5015614;28;20220;-75
2024/01/26 02:18:03;;;;;;;11.60;10.63;;;;;;;3.83;68.12;93080.34;5007397;28;20190;-75
2024/01/26 02:20:29;;;;;;;11.57;10.87;;;;;;;4.04;67.61;93118.53;5005734;28;20282;-75
2024/01/26 02:22:54;;;;;;;13.27;12.17;;;;;;;3.96;66.81;93095.63;4997508;28;20192;-75
2024/01/26 02:25:19;;;;;;;11.57;10.73;;;;;;;4.08;67.02;93117.06;5014116;28;20197;-75
2024/01/26 02:27:45;;;;;;;10.20;9.20;;;;;;;4.05;66.93;93130.44;5088263;28;20181;-75
2024/01/26 02:30:10;;;;;;;11.27;10.37;;;;;;;4.06;66.51;93115.72;5081196;28;20209;-75
2024/01/26 02:32:36;;;;;;;11.30;10.40;;;;;;;4.05;66.96;93104.59;5046546;28;20186;-75
2024/01/26 02:35:01;;;;;;;11.20;10.40;;;;;;;4.13;67.22;93106.84;5010140;28;20179;-75
2024/01/26 02:37:27;;;;;;;11.70;10.77;;;;;;;4.12;67.27;93109.66;5042355;28;20235;-75
2024/01/26 02:39:52;;;;;;;11.67;10.83;;;;;;;4.06;66.90;93116.50;5027618;28;20239;-75
2024/01/26 02:42:18;;;;;;;12.77;11.77;;;;;;;4.11;66.03;93116.59;5009492;28;20298;-75
2024/01/26 02:44:43;;;;;;;11.50;10.63;;;;;;;4.06;66.12;93101.00;5003059;28;20178;-75
2024/01/26 02:47:09;;;;;;;12.17;10.97;;;;;;;4.17;65.45;93127.84;4993102;28;20223;-75
2024/01/26 02:49:34;;;;;;;10.77;10.00;;;;;;;4.28;65.51;93108.97;4987736;28;20215;-75
2024/01/26 02:51:59;;;;;;;12.07;10.83;;;;;;;4.08;66.18;93083.47;4985615;28;20225;-75
2024/01/26 02:54:25;;;;;;;10.90;10.30;;;;;;;4.08;65.56;93090.44;5016993;28;20193;-75
2024/01/26 02:56:50;;;;;;;13.70;10.57;;;;;;;4.14;65.10;93098.06;4974521;28;20251;-75
2024/01/26 02:59:15;;;;;;;11.40;10.53;;;;;;;4.14;65.21;93103.22;4989923;28;20196;-75
2024/01/26 03:01:41;;;;;;;11.27;10.60;;;;;;;4.25;65.71;93122.34;5049422;28;20240;-75
2024/01/26 03:04:06;;;;;;;11.60;10.50;;;;;;;4.41;67.54;93130.16;5088604;28;20235;-74
2024/01/26 03:06:31;;;;;;;11.13;10.17;;;;;;;4.36;66.24;93127.47;5026910;28;20279;-75
2024/01/26 03:08:57;;;;;;;11.70;10.60;;;;;;;4.16;66.48;93121.88;4990793;28;20220;-75
2024/01/26 03:11:35;;;;;;;12.13;11.07;;;;;;;4.30;67.16;93128.38;4997081;28;20227;-75
2024/01/26 03:14:00;;;;;;;11.03;10.20;;;;;;;4.08;66.49;93098.19;5052454;28;20196;-75
2024/01/26 03:16:25;;;;;;;11.47;10.63;;;;;;;4.27;66.41;93143.53;4990719;28;20227;-75
2024/01/26 03:18:50;;;;;;;14.83;11.13;;;;;;;4.21;66.87;93131.53;5002500;28;20180;-75
2024/01/26 03:21:16;;;;;;;12.90;11.70;;;;;;;4.17;68.14;93141.53;5013509;28;20235;-75
2024/01/26 03:23:41;;;;;;;12.83;11.23;;;;;;;4.12;67.19;93133.69;5006788;28;20259;-75
2024/01/26 03:26:06;;;;;;;12.43;11.73;;;;;;;4.05;67.79;93127.06;5004972;28;20219;-75
2024/01/26 03:28:32;;;;;;;10.87;10.17;;;;;;;4.06;66.85;93131.22;5002110;28;20224;-75
2024/01/26 03:30:57;;;;;;;11.77;11.10;;;;;;;4.16;67.65;93129.63;5047629;28;20227;-75
2024/01/26 03:33:22;;;;;;;11.93;10.83;;;;;;;4.04;68.51;93126.28;5010981;28;20183;-75
2024/01/26 03:35:48;;;;;;;12.30;11.33;;;;;;;4.00;69.39;93134.72;5008655;28;20231;-75
2024/01/26 03:38:13;;;;;;;13.97;12.07;;;;;;;3.97;68.14;93124.84;5039697;28;20215;-75
2024/01/26 03:40:39;;;;;;;11.53;10.63;;;;;;;4.03;68.07;93127.28;5007507;28;20234;-75
2024/01/26 03:43:04;;;;;;;14.33;11.23;;;;;;;3.94;68.31;93126.06;5082016;28;20180;-75
2024/01/26 03:45:29;;;;;;;13.10;11.90;;;;;;;4.01;68.20;93124.16;5000436;28;20231;-75
2024/01/26 03:47:54;;;;;;;11.97;10.90;;;;;;;4.15;68.27;93122.91;5066873;28;20263;-75
2024/01/26 03:50:20;;;;;;;12.77;11.57;;;;;;;4.11;69.49;93123.59;5010674;28;20211;-75
2024/01/26 03:52:45;;;;;;;11.50;10.30;;;;;;;4.02;68.31;93130.88;5011596;28;20179;-75
2024/01/26 03:55:11;;;;;;;10.90;10.37;;;;;;;4.09;68.09;93123.03;4997842;28;20693;-75
2024/01/26 03:57:37;;;;;;;12.20;11.30;;;;;;;3.97;68.78;93117.84;5008134;28;20179;-75
2024/01/26 04:00:07;;;;;;;12.50;11.03;;;;;;;4.15;68.86;93119.53;4994656;28;20185;-75
2024/01/26 04:02:32;;;;;;;11.23;10.17;;;;;;;3.93;67.74;93083.16;5000683;28;20212;-75
2024/01/26 04:04:57;;;;;;;12.33;10.90;;;;;;;4.15;67.03;93115.16;5004299;28;20277;-75
2024/01/26 04:07:23;;;;;;;13.00;12.00;;;;;;;4.15;66.02;93122.91;5002501;28;20219;-75
2024/01/26 04:09:48;;;;;;;15.80;14.20;;;;;;;4.11;67.20;93103.69;5008409;28;20214;-75
2024/01/26 04:12:13;;;;;;;21.83;14.87;;;;;;;4.13;66.39;93122.34;5007400;28;20219;-75
2024/01/26 04:14:39;;;;;;;14.10;12.57;;;;;;;4.05;66.46;93099.44;5008546;28;20198;-75
2024/01/26 04:17:04;;;;;;;12.53;11.60;;;;;;;4.26;65.23;93126.47;5005669;28;20234;-74
2024/01/26 04:19:29;;;;;;;12.93;11.77;;;;;;;4.41;67.36;93134.53;5005834;28;20245;-75
2024/01/26 04:21:55;;;;;;;13.27;12.03;;;;;;;4.54;66.44;93103.28;5015688;28;20949;-75
2024/01/26 04:24:20;;;;;;;12.00;11.17;;;;;;;4.62;64.73;93137.28;5001757;28;20262;-75
2024/01/26 04:26:45;;;;;;;12.20;11.30;;;;;;;4.43;63.60;93117.00;5007944;28;20224;-75
2024/01/26 04:29:11;;;;;;;11.50;10.63;;;;;;;4.27;64.21;93097.81;5008499;28;20246;-75
2024/01/26 04:31:42;;;;;;;12.40;11.20;;;;;;;4.52;65.27;93136.31;5000073;28;20215;-75
2024/01/26 04:34:08;;;;;;;11.10;10.37;;;;;;;4.27;63.72;93115.91;5013916;28;20191;-75
2024/01/26 04:36:33;;;;;;;12.10;11.40;;;;;;;4.27;63.68;93154.69;5004793;28;20279;-75
2024/01/26 04:39:01;;;;;;;13.33;11.63;;;;;;;4.43;64.46;93171.28;5045296;28;20226;-75
2024/01/26 04:41:26;;;;;;;13.30;12.27;;;;;;;4.45;63.99;93157.13;5003013;28;20292;-73
2024/01/26 04:43:51;;;;;;;13.47;12.23;;;;;;;4.35;63.16;93163.88;5007731;28;20176;-75
2024/01/26 04:46:17;;;;;;;11.93;11.10;;;;;;;4.35;63.47;93171.63;5003696;28;20219;-76
2024/01/26 04:48:42;;;;;;;13.30;12.03;;;;;;;3.98;64.38;93103.94;5004965;28;20212;-73
2024/01/26 04:51:07;;;;;;;12.63;11.60;;;;;;;4.20;63.40;93129.97;5003860;28;20243;-74
2024/01/26 04:53:33;;;;;;;13.00;11.93;;;;;;;4.43;64.80;93153.19;5008466;28;20274;-74
2024/01/26 04:55:58;;;;;;;11.60;10.90;;;;;;;4.14;62.59;93157.50;4998263;28;20286;-73
2024/01/26 04:58:24;;;;;;;11.27;10.63;;;;;;;4.09;63.79;93148.84;5006538;28;20180;-75
2024/01/26 05:00:49;;;;;;;13.03;11.80;;;;;;;4.03;65.42;93155.69;5000974;28;20223;-77
2024/01/26 05:03:15;;;;;;;11.83;11.00;;;;;;;4.21;66.76;93173.69;5002616;28;20254;-75
2024/01/26 05:05:40;;;;;;;17.90;11.90;;;;;;;4.17;67.48;93166.59;5042477;28;20288;-76
2024/01/26 05:08:06;;;;;;;12.17;11.23;;;;;;;4.08;66.33;93175.69;5006896;28;20201;-76
2024/01/26 05:10:31;;;;;;;11.83;11.10;;;;;;;4.05;66.72;93166.59;5016112;28;20266;-73
2024/01/26 05:12:57;;;;;;;12.03;11.10;;;;;;;4.23;66.45;93169.06;5090732;28;20244;-72
2024/01/26 05:15:22;;;;;;;12.23;11.27;;;;;;;4.26;66.95;93167.81;5086206;28;20217;-73
2024/01/26 05:17:47;;;;;;;12.90;11.60;;;;;;;4.08;65.17;93166.16;5009104;28;20897;-72
2024/01/26 05:20:13;;;;;;;12.70;11.77;;;;;;;4.12;65.03;93172.44;4995567;28;20859;-76
2024/01/26 05:22:38;;;;;;;11.63;10.70;;;;;;;4.06;65.65;93177.72;4998700;28;20293;-73
2024/01/26 05:25:04;;;;;;;11.83;10.73;;;;;;;3.95;65.60;93176.72;5008393;28;20199;-77
2024/01/26 05:27:30;;;;;;;13.43;12.43;;;;;;;4.00;65.39;93163.91;4997068;28;20291;-75
2024/01/26 05:29:56;;;;;;;10.67;9.90;;;;;;;4.03;64.91;93186.69;5026346;28;20251;-74
2024/01/26 05:32:22;;;;;;;12.70;11.33;;;;;;;3.63;65.88;93131.56;5009649;28;20258;-77
2024/01/26 05:34:48;;;;;;;11.13;10.40;;;;;;;3.60;64.97;93147.50;5009959;28;20191;-72
2024/01/26 05:37:13;;;;;;;13.23;12.00;;;;;;;3.86;65.33;93146.28;5018384;28;20248;-72
2024/01/26 05:39:38;;;;;;;11.90;11.13;;;;;;;3.96;65.85;93193.78;5033263;28;20234;-73
2024/01/26 05:42:04;;;;;;;12.03;11.13;;;;;;;3.81;65.71;93190.06;5008763;28;20286;-73
2024/01/26 05:44:30;;;;;;;12.07;11.23;;;;;;;3.78;65.96;93186.13;5011416;28;20191;-73
2024/01/26 05:46:55;;;;;;;12.07;11.13;;;;;;;3.77;66.43;93192.28;5012699;28;20215;-72
2024/01/26 05:49:23;;;;;;;11.60;10.97;;;;;;;3.76;66.47;93198.47;5011474;28;20206;-72
2024/01/26 05:51:48;;;;;;;12.63;11.60;;;;;;;3.68;66.50;93183.31;5010689;28;20241;-74
2024/01/26 05:54:14;;;;;;;12.03;11.03;;;;;;;3.55;66.81;93169.81;4999336;28;20199;-73
2024/01/26 05:56:43;;;;;;;12.47;11.37;;;;;;;3.66;67.24;93203.38;5002566;28;20308;-74
2024/01/26 05:59:08;;;;;;;13.37;12.40;;;;;;;3.65;69.21;93180.38;5011123;28;20203;-74
2024/01/26 06:01:34;;;;;;;16.33;11.67;;;;;;;3.59;66.80;93202.72;4994104;28;20220;-74
2024/01/26 06:04:00;;;;;;;10.33;9.93;;;;;;;3.60;67.80;93199.13;4985522;28;20192;-75
2024/01/26 06:06:26;;;;;;;11.83;11.00;;;;;;;3.54;68.87;93202.59;4998067;28;20249;-74
2024/01/26 06:08:51;;;;;;;12.67;11.77;;;;;;;3.55;67.49;93204.16;4983948;28;20223;-73
2024/01/26 06:11:17;;;;;;;13.23;12.00;;;;;;;3.54;67.83;93200.00;5031436;28;20330;-77
2024/01/26 06:13:42;;;;;;;12.60;11.50;;;;;;;3.49;67.47;93212.78;4998903;28;20220;-77
2024/01/26 06:16:12;;;;;;;12.37;11.47;;;;;;;3.64;68.26;93214.97;5004261;28;20240;-71
2024/01/26 06:18:37;;;;;;;14.07;11.93;;;;;;;3.58;67.91;93221.78;5000278;28;20188;-73
2024/01/26 06:21:03;;;;;;;12.80;11.80;;;;;;;3.54;67.36;93215.50;4989193;28;20313;-74
2024/01/26 06:23:28;;;;;;;14.17;12.87;;;;;;;3.52;67.05;93220.06;4975711;28;20193;-74
2024/01/26 06:25:54;;;;;;;13.17;12.33;;;;;;;3.62;67.14;93228.09;5002188;28;20234;-74
2024/01/26 06:28:19;;;;;;;13.40;12.50;;;;;;;3.59;68.03;93212.25;5002606;28;20253;-73
2024/01/26 06:30:45;;;;;;;11.37;10.43;;;;;;;3.44;67.74;93206.72;5002171;28;20227;-76
2024/01/26 06:33:10;;;;;;;13.07;11.83;;;;;;;3.75;69.82;93242.59;5007421;28;20200;-74
2024/01/26 06:35:35;;;;;;;13.10;11.90;;;;;;;3.44;67.09;93197.16;5033668;28;20232;-86
2024/01/26 06:38:01;;;;;;;11.60;10.73;;;;;;;3.57;67.45;93222.00;5091834;28;20189;-79
2024/01/26 06:40:26;;;;;;;12.30;11.60;;;;;;;3.70;67.04;93240.69;5084945;28;20220;-78
2024/01/26 06:42:51;;;;;;;12.33;11.37;;;;;;;3.64;67.13;93227.88;5008729;28;20188;-78
2024/01/26 06:45:17;;;;;;;12.77;11.47;;;;;;;3.63;67.09;93242.56;5061995;28;20183;-79
2024/01/26 06:47:42;;;;;;;12.50;11.20;;;;;;;3.64;66.98;93262.22;5010731;28;20203;-78
2024/01/26 06:50:08;;;;;;;11.20;10.60;;;;;;;3.77;66.70;93262.00;5013883;28;20231;-76
2024/01/26 06:52:33;;;;;;;12.80;11.63;;;;;;;3.61;66.61;93259.28;5022949;28;20250;-78
2024/01/26 06:54:59;;;;;;;14.23;13.10;;;;;;;3.71;66.00;93257.72;5083277;28;20176;-78
2024/01/26 06:57:25;;;;;;;12.37;11.47;;;;;;;3.69;65.85;93248.66;5039439;28;20287;-79
2024/01/26 06:59:50;;;;;;;16.07;12.30;;;;;;;3.66;66.27;93244.69;5005991;28;20196;-78
2024/01/26 07:02:16;;;;;;;13.17;11.80;;;;;;;3.68;65.92;93254.81;4995907;28;20219;-78
2024/01/26 07:04:43;;;;;;;14.40;12.90;;;;;;;3.63;65.78;93218.56;5009708;28;20183;-77
2024/01/26 07:07:08;;;;;;;11.03;10.50;;;;;;;3.70;65.20;93232.13;5024872;28;20225;-79
2024/01/26 07:09:34;;;;;;;11.13;10.10;;;;;;;3.74;66.34;93261.66;5002847;28;20215;-78
2024/01/26 07:11:59;;;;;;;13.57;12.30;;;;;;;3.78;65.71;93263.59;5060558;28;20227;-78
2024/01/26 07:14:24;;;;;;;11.47;10.43;;;;;;;3.82;65.26;93253.59;5068694;28;20190;-78
2024/01/26 07:16:50;;;;;;;11.53;10.53;;;;;;;3.83;65.58;93263.72;5006784;28;20245;-77
2024/01/26 07:19:16;;;;;;;11.40;10.70;;;;;;;3.70;65.16;93253.59;5020968;28;20176;-78
2024/01/26 07:21:41;;;;;;;11.10;10.50;;;;;;;3.74;65.01;93248.75;5041053;28;20224;-79
2024/01/26 07:24:07;;;;;;;11.33;10.43;;;;;;;3.89;64.61;93260.22;5014253;28;20183;-78
2024/01/26 07:26:33;;;;;;;10.60;9.93;;;;;;;3.88;65.70;93258.66;5000694;28;20269;-79
2024/01/26 07:28:58;;;;;;;11.03;10.37;;;;;;;3.85;64.73;93282.34;5001679;28;20220;-78
2024/01/26 07:31:23;;;;;;;11.47;10.40;;;;;;;3.90;64.70;93267.00;5013060;28;20234;-78
2024/01/26 07:33:49;;;;;;;11.50;10.90;;;;;;;3.86;64.54;93265.84;5022322;28;20188;-77
2024/01/26 07:36:14;;;;;;;11.10;10.07;;;;;;;4.06;64.22;93286.22;5010408;28;20230;-78
2024/01/26 07:38:40;;;;;;;11.37;10.57;;;;;;;4.04;64.25;93283.88;5065860;28;20220;-78
2024/01/26 07:41:05;;;;;;;11.57;10.70;;;;;;;3.96;64.13;93271.25;5007834;28;20242;-78
2024/01/26 07:43:30;;;;;;;11.10;10.50;;;;;;;4.06;65.89;93279.25;5005820;28;20191;-78
2024/01/26 07:45:56;;;;;;;12.67;11.37;;;;;;;3.84;64.31;93254.97;4997444;28;20235;-79
2024/01/26 07:48:21;;;;;;;12.33;11.40;;;;;;;4.06;64.20;93287.00;5000757;28;20195;-77
2024/01/26 07:50:47;;;;;;;10.97;10.07;;;;;;;4.02;63.89;93292.81;5008202;28;20263;-78
2024/01/26 07:53:12;;;;;;;11.00;10.33;;;;;;;3.97;63.32;93280.56;5012423;28;20192;-78
2024/01/26 07:55:38;;;;;;;11.97;11.20;;;;;;;3.80;63.20;93246.06;4999378;28;20243;-79
2024/01/26 07:58:03;;;;;;;11.47;10.37;;;;;;;4.26;62.93;93303.00;4997783;28;20191;-78
2024/01/26 08:00:29;;;;;;;10.53;9.53;;;;;;;4.09;62.68;93286.56;5002846;28;20227;-77
2024/01/26 08:02:55;;;;;;;10.70;10.10;;;;;;;4.24;62.83;93289.50;5008542;28;20202;-78
2024/01/26 08:05:20;;;;;;;12.43;11.33;;;;;;;4.39;62.23;93297.59;5005601;28;20185;-74
2024/01/26 08:07:46;;;;;;;11.50;10.63;;;;;;;4.36;63.58;93310.19;4997521;28;20196;-71
2024/01/26 08:10:12;;;;;;;13.50;11.53;;;;;;;4.39;63.41;93307.94;5027588;28;20226;-72
2024/01/26 08:12:38;;;;;;;11.47;10.97;;;;;;;4.41;63.38;93305.94;5001702;28;20218;-72
2024/01/26 08:15:04;;;;;;;11.33;10.63;;;;;;;4.49;63.66;93307.38;4995449;28;20179;-72
2024/01/26 08:17:29;;;;;;;11.50;10.87;;;;;;;4.50;64.18;93304.56;5029897;28;20226;-73
2024/01/26 08:19:57;;;;;;;11.50;10.97;;;;;;;4.40;63.86;93312.13;5026354;28;20235;-72
2024/01/26 08:22:22;;;;;;;11.57;10.50;;;;;;;4.45;64.08;93309.63;4983911;28;20225;-75
2024/01/26 08:24:47;;;;;;;12.63;11.07;;;;;;;4.61;65.46;93311.56;4987574;28;20221;-74
2024/01/26 08:27:13;;;;;;;10.93;10.03;;;;;;;4.68;63.06;93321.78;4986636;28;20260;-74
2024/01/26 08:29:39;;;;;;;10.73;10.13;;;;;;;4.28;63.10;93293.22;4987945;28;20224;-75
2024/01/26 08:32:05;;;;;;;11.33;10.53;;;;;;;4.53;63.27;93314.47;4978186;28;20278;-73
2024/01/26 08:34:30;;;;;;;11.73;11.10;;;;;;;4.49;63.73;93297.84;4986259;28;20236;-73
2024/01/26 08:36:56;;;;;;;11.93;11.10;;;;;;;4.63;62.56;93312.13;4972178;28;20220;-74
2024/01/26 08:39:22;;;;;;;11.00;9.97;;;;;;;4.56;64.27;93303.66;4974181;28;20236;-72
2024/01/26 08:41:48;;;;;;;10.27;9.77;;;;;;;4.81;63.08;93296.47;4973961;28;20239;-78
2024/01/26 08:44:14;;;;;;;10.80;10.30;;;;;;;4.94;63.70;93311.75;4974046;28;20193;-73
2024/01/26 08:46:39;;;;;;;11.40;10.47;;;;;;;4.82;63.78;93308.38;5005692;28;20304;-73
2024/01/26 08:49:06;;;;;;;11.23;10.17;;;;;;;4.94;62.64;93321.31;5006554;28;20212;-74
2024/01/26 08:51:32;;;;;;;10.77;9.97;;;;;;;4.74;62.97;93321.69;5003666;28;20224;-74
2024/01/26 08:53:57;;;;;;;10.50;9.57;;;;;;;4.49;63.87;93295.25;5003410;28;20172;-74
2024/01/26 08:56:24;;;;;;;10.67;10.13;;;;;;;4.65;63.71;93314.47;5000335;28;20299;-75
2024/01/26 08:58:49;;;;;;;12.20;11.37;;;;;;;4.68;63.40;93312.25;5003333;28;20204;-75
2024/01/26 09:01:15;;;;;;;11.27;10.33;;;;;;;4.71;62.93;93326.50;5014855;28;20249;-77
2024/01/26 09:03:40;;;;;;;11.97;11.17;;;;;;;4.79;62.74;93319.19;5009584;28;20291;-77
2024/01/26 09:06:07;;;;;;;12.37;11.10;;;;;;;4.49;63.41;93321.09;5016760;28;20223;-77
2024/01/26 09:08:33;;;;;;;11.03;10.07;;;;;;;4.50;63.65;93324.47;5021002;28;20214;-77
2024/01/26 09:10:59;;;;;;;12.20;11.40;;;;;;;4.70;63.38;93335.28;4999971;28;20224;-77
2024/01/26 09:13:25;;;;;;;11.53;10.77;;;;;;;4.74;63.10;93326.06;5012711;28;20196;-77
2024/01/26 09:15:51;;;;;;;12.00;11.33;;;;;;;4.87;62.84;93325.84;5004276;28;20231;-78
2024/01/26 09:18:16;;;;;;;12.33;11.50;;;;;;;4.95;62.30;93328.84;4998622;28;20216;-77
2024/01/26 09:20:42;;;;;;;11.93;11.33;;;;;;;5.03;62.34;93324.34;5019135;28;20247;-76
2024/01/26 09:23:07;;;;;;;10.23;9.63;;;;;;;5.27;61.99;93320.69;5015656;28;20196;-77
2024/01/26 09:25:32;;;;;;;13.03;10.20;;;;;;;5.23;63.35;93325.53;5028852;28;20234;-74
2024/01/26 09:27:58;;;;;;;12.93;11.97;;;;;;;5.00;62.96;93322.22;5012991;28;20211;-75
2024/01/26 09:30:23;;;;;;;11.43;10.63;;;;;;;4.96;62.04;93301.97;5014739;28;20246;-75
2024/01/26 09:32:48;;;;;;;11.50;10.70;;;;;;;5.01;62.30;93300.50;5082048;28;20262;-75
2024/01/26 09:35:14;;;;;;;10.90;10.07;;;;;;;5.02;62.62;93307.25;5081003;28;20247;-77
2024/01/26 09:37:40;;;;;;;11.60;10.80;;;;;;;4.93;62.57;93309.41;5015762;28;20276;-77
2024/01/26 09:40:06;;;;;;;11.73;10.67;;;;;;;4.76;63.12;93305.94;5015894;28;20226;-75
2024/01/26 09:42:31;;;;;;;11.03;10.20;;;;;;;5.04;62.74;93310.41;5020958;28;20253;-74
2024/01/26 09:44:57;;;;;;;12.67;11.33;;;;;;;5.23;62.19;93322.94;5016184;28;20207;-75
2024/01/26 09:47:25;;;;;;;11.50;10.67;;;;;;;5.03;61.66;93316.59;4993615;28;20277;-74
2024/01/26 09:50:02;;;;;;;11.67;11.03;;;;;;;4.87;63.32;93305.91;5057853;28;20238;-76
2024/01/26 09:52:27;;;;;;;11.50;10.60;;;;;;;5.14;62.67;93295.09;5005612;28;20805;-74
2024/01/26 09:54:54;;;;;;;11.23;10.63;;;;;;;5.30;61.59;93296.94;5005392;28;20172;-74
2024/01/26 09:57:21;;;;;;;11.83;11.03;;;;;;;5.25;61.75;93292.47;5002049;28;20231;-75
2024/01/26 09:59:50;;;;;;;12.80;11.67;;;;;;;5.30;62.09;93294.34;5002224;28;20199;-75
2024/01/26 10:02:17;;;;;;;10.47;9.67;;;;;;;5.22;61.30;93286.94;5054564;28;20235;-74
2024/01/26 10:04:42;;;;;;;11.70;10.77;;;;;;;5.19;61.18;93284.81;5029487;28;20184;-75
2024/01/26 10:07:08;;;;;;;11.37;10.87;;;;;;;5.24;60.46;93269.41;5043698;28;20253;-75
2024/01/26 10:09:35;;;;;;;11.20;10.43;;;;;;;5.11;60.76;93254.13;5041640;28;20207;-75
2024/01/26 10:12:00;;;;;;;11.57;10.87;;;;;;;5.38;61.81;93275.88;5014257;28;20231;-75
2024/01/26 10:14:26;;;;;;;11.87;11.10;;;;;;;5.54;60.98;93275.16;5008539;28;20180;-74
2024/01/26 10:16:58;;;;;;;12.53;11.30;;;;;;;5.65;60.70;93271.72;5012227;28;20220;-75
2024/01/26 10:19:27;;;;;;;11.60;10.80;;;;;;;5.51;60.55;93263.44;5030616;28;20247;-75
2024/01/26 10:21:54;;;;;;;12.57;11.33;;;;;;;5.68;60.26;93256.50;5013147;28;20295;-75
2024/01/26 10:24:24;;;;;;;12.00;11.30;;;;;;;5.34;59.87;93238.53;5016117;28;20219;-74
2024/01/26 10:26:53;;;;;;;11.93;11.13;;;;;;;5.33;59.85;93249.88;5032097;28;20257;-74
2024/01/26 10:29:20;;;;;;;11.30;10.63;;;;;;;5.39;59.20;93254.94;4999894;28;20228;-74
2024/01/26 10:31:46;;;;;;;12.23;11.27;;;;;;;5.28;60.30;93252.38;5004654;28;20240;-75
2024/01/26 10:34:16;;;;;;;12.17;11.27;;;;;;;5.35;60.67;93245.28;5020174;28;20752;-75
2024/01/26 10:36:45;;;;;;;11.07;10.17;;;;;;;5.35;59.92;93237.50;5008465;28;20223;-74
2024/01/26 10:39:23;;;;;;;11.33;10.67;;;;;;;5.39;59.39;93242.00;5060753;28;20242;-75
2024/01/26 10:41:52;;;;;;;11.03;10.13;;;;;;;5.26;58.57;93236.31;5060722;28;20220;-76
2024/01/26 10:44:19;;;;;;;11.70;10.90;;;;;;;5.42;58.06;93240.72;5020249;28;20256;-75
2024/01/26 10:46:48;;;;;;;12.23;11.33;;;;;;;5.47;59.48;93226.09;5009965;28;20223;-75
2024/01/26 10:49:15;;;;;;;11.80;11.00;;;;;;;5.31;59.99;93226.06;5050947;28;20230;-75
2024/01/26 10:51:43;;;;;;;12.37;10.70;;;;;;;5.37;59.75;93232.91;5018575;28;20219;-74
2024/01/26 10:54:10;;;;;;;11.27;10.47;;;;;;;5.45;59.36;93228.13;5032278;28;20214;-74
2024/01/26 10:56:36;;;;;;;12.07;11.40;;;;;;;5.54;58.62;93244.84;5001262;28;20223;-76
2024/01/26 10:59:02;;;;;;;12.70;11.77;;;;;;;5.54;59.98;93236.31;4998345;28;20188;-74
2024/01/26 11:01:29;;;;;;;12.33;11.07;;;;;;;5.63;59.17;93245.28;5008497;28;20286;-74
2024/01/26 11:03:58;;;;;;;12.53;11.50;;;;;;;5.48;59.27;93232.81;5005788;28;20176;-76
2024/01/26 11:06:24;;;;;;;11.77;10.83;;;;;;;5.24;59.10;93207.28;5012495;28;20239;-75
2024/01/26 11:08:50;;;;;;;12.13;11.10;;;;;;;5.14;60.64;93223.41;5033831;28;20204;-75
2024/01/26 11:11:19;;;;;;;12.27;11.20;;;;;;;5.19;59.40;93178.72;5012901;28;20254;-79
2024/01/26 11:13:52;;;;;;;13.33;12.13;;;;;;;5.18;59.89;93216.75;5006209;28;20257;-74
2024/01/26 11:16:17;;;;;;;12.93;11.93;;;;;;;5.14;62.42;93207.09;5012350;28;20220;-75
2024/01/26 11:18:42;;;;;;;12.70;11.50;;;;;;;5.27;60.68;93186.09;5003804;28;20212;-74
2024/01/26 11:21:18;;;;;;;13.13;11.53;;;;;;;5.62;59.63;93200.44;5007734;28;20215;-74